createdAt,value
2023-05-02T00:01:49.616Z,11.26
2023-05-02T00:04:17.300Z,11.18
2023-05-02T00:06:46.337Z,11.19
2023-05-02T00:09:14.227Z,11.22
2023-05-02T00:11:42.952Z,11.13
2023-05-02T00:14:10.774Z,11.12
2023-05-02T00:16:38.181Z,11.06
2023-05-02T00:19:05.680Z,11.14
2023-05-02T00:21:33.574Z,11.13
2023-05-02T00:24:01.121Z,11.07
2023-05-02T00:26:28.935Z,11.10
2023-05-02T00:28:58.791Z,11.10
2023-05-02T00:31:26.403Z,11.16
2023-05-02T00:33:53.804Z,11.34
2023-05-02T00:36:21.216Z,11.34
2023-05-02T00:38:48.571Z,11.31
2023-05-02T00:41:17.785Z,11.33
2023-05-02T00:43:46.512Z,11.38
2023-05-02T00:46:15.492Z,11.31
2023-05-02T00:48:43.837Z,11.33
2023-05-02T00:51:12.948Z,11.42
2023-05-02T00:53:41.003Z,11.50
2023-05-02T00:56:09.705Z,11.55
2023-05-02T00:58:38.568Z,11.44
2023-05-02T01:01:17.554Z,11.38
2023-05-02T01:04:00.765Z,11.49
2023-05-02T01:06:32.974Z,11.47
2023-05-02T01:09:06.333Z,11.55
2023-05-02T01:11:40.633Z,11.54
2023-05-02T01:14:12.229Z,11.40
2023-05-02T01:16:42.051Z,11.36
2023-05-02T01:22:05.871Z,11.38
2023-05-02T01:24:49.030Z,11.35
2023-05-02T01:27:23.646Z,11.44
2023-05-02T01:29:55.771Z,11.35
2023-05-02T01:32:25.895Z,11.48
2023-05-02T01:35:02.558Z,11.45
2023-05-02T01:37:33.429Z,11.44
2023-05-02T01:40:06.886Z,11.42
2023-05-02T01:42:37.853Z,11.54
2023-05-02T01:45:12.044Z,11.51
2023-05-02T01:47:42.042Z,11.56
2023-05-02T01:50:12.913Z,11.53
2023-05-02T01:52:42.923Z,11.50
2023-05-02T01:55:14.560Z,11.56
2023-05-02T01:57:44.956Z,11.54
2023-05-02T02:00:17.404Z,11.50
2023-05-02T02:02:49.793Z,11.46
2023-05-02T02:05:19.417Z,11.03
2023-05-02T02:07:47.776Z,11.35
2023-05-02T02:10:16.701Z,11.40
2023-05-02T02:12:50.075Z,11.41
2023-05-02T02:15:22.660Z,11.44
2023-05-02T02:17:58.109Z,11.40
2023-05-02T02:20:32.170Z,11.38
2023-05-02T02:23:02.638Z,11.28
2023-05-02T02:25:31.102Z,11.34
2023-05-02T02:27:59.129Z,11.37
2023-05-02T02:30:30.604Z,11.38
2023-05-02T02:33:00.048Z,11.39
2023-05-02T02:35:32.691Z,11.43
2023-05-02T02:38:11.513Z,11.46
2023-05-02T02:40:48.365Z,11.50
2023-05-02T02:43:25.101Z,11.52
2023-05-02T02:46:18.418Z,11.44
2023-05-02T02:48:56.540Z,11.51
2023-05-02T02:51:29.724Z,11.53
2023-05-02T02:54:09.840Z,11.52
2023-05-02T02:56:52.502Z,11.44
2023-05-02T02:59:28.802Z,11.42
2023-05-02T03:02:08.269Z,11.38
2023-05-02T03:04:42.028Z,11.51
2023-05-02T03:07:12.962Z,11.59
2023-05-02T03:09:45.556Z,11.65
2023-05-02T03:12:15.752Z,11.65
2023-05-02T03:14:43.561Z,11.71
2023-05-02T03:17:14.002Z,11.69
2023-05-02T03:19:43.823Z,11.80
2023-05-02T03:22:11.375Z,11.84
2023-05-02T03:24:41.200Z,11.83
2023-05-02T03:27:09.910Z,11.91
2023-05-02T03:29:37.288Z,11.86
2023-05-02T03:32:06.709Z,11.95
2023-05-02T03:34:37.466Z,11.96
2023-05-02T03:37:07.145Z,11.99
2023-05-02T03:39:34.524Z,12.02
2023-05-02T03:42:03.911Z,12.00
2023-05-02T03:44:31.584Z,12.01
2023-05-02T03:47:00.971Z,11.99
2023-05-02T03:49:28.412Z,11.97
2023-05-02T03:51:57.126Z,11.93
2023-05-02T03:54:25.088Z,11.83
2023-05-02T03:56:54.494Z,11.87
2023-05-02T03:59:23.858Z,11.88
2023-05-02T04:01:51.644Z,11.85
2023-05-02T04:04:19.266Z,11.73
2023-05-02T04:06:47.187Z,11.86
2023-05-02T04:09:16.033Z,11.94
2023-05-02T04:11:43.435Z,11.91
2023-05-02T04:14:10.829Z,11.89
2023-05-02T04:16:38.252Z,11.91
2023-05-02T04:19:05.670Z,11.95
2023-05-02T04:21:34.329Z,12.01
2023-05-02T04:24:01.793Z,12.01
2023-05-02T04:26:30.548Z,12.01
2023-05-02T04:28:57.986Z,11.92
2023-05-02T04:31:28.166Z,11.93
2023-05-02T04:33:58.747Z,11.97
2023-05-02T04:36:30.169Z,12.00
2023-05-02T04:38:57.643Z,11.99
2023-05-02T04:41:28.170Z,11.98
2023-05-02T04:43:56.963Z,11.85
2023-05-02T04:46:24.439Z,11.86
2023-05-02T04:48:51.867Z,11.84
2023-05-02T04:51:21.068Z,11.77
2023-05-02T04:53:57.631Z,11.69
2023-05-02T04:56:25.488Z,11.77
2023-05-02T04:58:52.841Z,11.63
2023-05-02T05:01:21.782Z,11.63
2023-05-02T05:03:49.633Z,11.60
2023-05-02T05:06:17.191Z,11.54
2023-05-02T05:08:46.544Z,11.53
2023-05-02T05:11:14.493Z,11.50
2023-05-02T05:13:41.920Z,11.53
2023-05-02T05:16:11.031Z,11.52
2023-05-02T05:18:41.230Z,11.49
2023-05-02T05:21:08.813Z,11.51
2023-05-02T05:23:36.514Z,11.49
2023-05-02T05:26:11.513Z,11.48
2023-05-02T05:28:39.556Z,11.46
2023-05-02T05:31:07.999Z,11.46
2023-05-02T05:33:35.656Z,11.50
2023-05-02T05:36:08.626Z,11.55
2023-05-02T05:38:37.909Z,11.54
2023-05-02T05:41:07.508Z,11.48
2023-05-02T05:43:36.626Z,11.55
2023-05-02T05:46:05.640Z,11.64
2023-05-02T05:48:33.068Z,11.70
2023-05-02T05:51:04.632Z,11.52
2023-05-02T05:53:35.683Z,11.54
2023-05-02T05:56:09.868Z,11.71
2023-05-02T05:58:37.395Z,11.68
2023-05-02T06:01:06.163Z,11.69
2023-05-02T06:03:33.829Z,11.48
2023-05-02T06:06:01.289Z,11.67
2023-05-02T06:08:28.771Z,11.69
2023-05-02T06:10:57.519Z,11.61
2023-05-02T06:13:25.120Z,11.37
2023-05-02T06:15:55.044Z,10.98
2023-05-02T06:18:22.860Z,10.63
2023-05-02T06:20:50.470Z,10.52
2023-05-02T06:23:17.877Z,10.42
2023-05-02T06:25:45.286Z,10.28
2023-05-02T06:28:14.028Z,10.20
2023-05-02T06:30:41.430Z,10.45
2023-05-02T06:33:08.875Z,10.19
2023-05-02T06:35:36.328Z,10.30
2023-05-02T06:38:04.725Z,10.28
2023-05-02T06:40:36.344Z,10.07
2023-05-02T06:43:03.804Z,9.93
2023-05-02T06:45:32.517Z,9.96
2023-05-02T06:48:05.848Z,9.76
2023-05-02T06:50:33.577Z,9.86
2023-05-02T06:53:01.302Z,9.77
2023-05-02T06:55:28.759Z,9.91
2023-05-02T06:57:56.519Z,9.90
2023-05-02T07:00:23.914Z,9.92
2023-05-02T07:02:52.849Z,9.78
2023-05-02T07:05:20.370Z,9.91
2023-05-02T07:07:48.060Z,9.91
2023-05-02T07:10:15.519Z,9.99
2023-05-02T07:12:45.357Z,10.00
2023-05-02T07:15:13.768Z,10.07
2023-05-02T07:17:41.760Z,10.14
2023-05-02T07:20:11.953Z,10.01
2023-05-02T07:22:39.391Z,10.10
2023-05-02T07:25:07.565Z,10.09
2023-05-02T07:27:35.002Z,10.02
2023-05-02T07:30:02.960Z,9.89
2023-05-02T07:32:32.069Z,9.86
2023-05-02T07:34:59.654Z,10.16
2023-05-02T07:37:34.235Z,10.32
2023-05-02T07:40:02.717Z,10.36
2023-05-02T07:42:30.901Z,10.15
2023-05-02T07:44:59.825Z,10.27
2023-05-02T07:47:28.010Z,10.57
2023-05-02T07:49:56.346Z,10.64
2023-05-02T07:52:23.884Z,10.74
2023-05-02T07:54:52.829Z,10.71
2023-05-02T07:57:20.247Z,11.14
2023-05-02T07:59:47.955Z,11.11
2023-05-02T08:02:17.526Z,10.99
2023-05-02T08:04:44.999Z,10.99
2023-05-02T08:07:12.416Z,11.03
2023-05-02T08:09:39.868Z,10.83
2023-05-02T08:12:08.903Z,10.61
2023-05-02T08:14:36.299Z,10.52
2023-05-02T08:17:03.714Z,10.44
2023-05-02T08:19:31.901Z,10.01
2023-05-02T08:22:00.105Z,10.05
2023-05-02T08:24:27.956Z,10.10
2023-05-02T08:26:55.355Z,10.17
2023-05-02T08:29:24.086Z,10.33
2023-05-02T08:31:51.791Z,10.40
2023-05-02T08:34:19.305Z,10.10
2023-05-02T08:36:48.139Z,10.44
2023-05-02T08:39:16.919Z,10.51
2023-05-02T08:41:45.049Z,10.41
2023-05-02T08:44:13.009Z,10.39
2023-05-02T08:46:43.596Z,10.68
2023-05-02T08:49:11.774Z,10.56
2023-05-02T08:51:41.334Z,10.56
2023-05-02T08:54:10.822Z,10.60
2023-05-02T08:56:38.827Z,10.50
2023-05-02T08:59:08.102Z,10.14
2023-05-02T09:01:36.754Z,9.99
2023-05-02T09:04:05.864Z,9.94
2023-05-02T09:06:33.334Z,10.24
2023-05-02T09:09:01.628Z,10.39
2023-05-02T09:11:30.187Z,10.39
2023-05-02T09:13:58.939Z,10.22
2023-05-02T09:16:27.651Z,10.35
2023-05-02T09:18:56.655Z,10.56
2023-05-02T09:21:27.006Z,10.53
2023-05-02T09:23:56.168Z,10.64
2023-05-02T09:26:28.348Z,10.83
2023-05-02T09:28:57.627Z,11.19
2023-05-02T09:31:49.452Z,11.26
2023-05-02T09:34:18.289Z,11.05
2023-05-02T09:36:50.381Z,10.72
2023-05-02T09:39:19.203Z,10.68
2023-05-02T09:41:48.128Z,10.63
2023-05-02T09:44:18.228Z,10.73
2023-05-02T09:46:48.064Z,10.84
2023-05-02T09:49:18.536Z,11.04
2023-05-02T09:51:48.371Z,10.99
2023-05-02T09:54:37.018Z,10.77
2023-05-02T09:57:04.761Z,10.87
2023-05-02T09:59:32.148Z,11.48
2023-05-02T10:02:01.385Z,11.54
2023-05-02T10:04:30.367Z,11.50
2023-05-02T10:06:59.777Z,11.98
2023-05-02T10:09:32.347Z,11.77
2023-05-02T10:12:04.922Z,11.48
2023-05-02T10:14:36.331Z,11.57
2023-05-02T10:17:10.110Z,11.82
2023-05-02T10:19:42.683Z,11.86
2023-05-02T10:22:12.859Z,11.97
2023-05-02T10:24:42.050Z,12.07
2023-05-02T10:27:09.589Z,11.67
2023-05-02T10:29:38.122Z,11.85
2023-05-02T10:32:07.967Z,12.34
2023-05-02T10:34:36.506Z,12.59
2023-05-02T10:37:03.883Z,12.64
2023-05-02T10:39:33.040Z,12.04
2023-05-02T10:42:06.030Z,11.69
2023-05-02T10:44:34.635Z,11.44
2023-05-02T10:47:02.416Z,11.22
2023-05-02T10:49:30.068Z,11.40
2023-05-02T10:51:57.495Z,11.28
2023-05-02T10:54:25.899Z,11.43
2023-05-02T10:57:08.460Z,11.59
2023-05-02T10:59:38.229Z,11.45
2023-05-02T11:02:07.113Z,11.30
2023-05-02T11:05:03.069Z,10.83
2023-05-02T11:07:32.016Z,10.77
2023-05-02T11:10:27.217Z,11.23
2023-05-02T11:12:57.059Z,11.29
2023-05-02T11:15:56.691Z,11.88
2023-05-02T11:18:24.521Z,11.91
2023-05-02T11:20:52.078Z,11.55
2023-05-02T11:23:25.815Z,12.45
2023-05-02T11:25:55.595Z,12.70
2023-05-02T11:28:48.698Z,12.43
2023-05-02T11:31:55.966Z,12.18
2023-05-02T11:34:23.518Z,13.04
2023-05-02T11:36:50.931Z,13.11
2023-05-02T11:39:23.940Z,13.07
2023-05-02T11:41:51.874Z,12.79
2023-05-02T11:44:20.572Z,13.02
2023-05-02T11:46:48.382Z,12.64
2023-05-02T11:49:16.377Z,12.59
2023-05-02T11:51:43.999Z,12.97
2023-05-02T11:54:19.545Z,13.69
2023-05-02T11:56:48.025Z,13.38
2023-05-02T11:59:15.437Z,13.60
2023-05-02T12:01:50.035Z,14.13
2023-05-02T12:04:21.790Z,13.71
2023-05-02T12:06:58.929Z,13.80
2023-05-02T12:09:26.435Z,14.11
2023-05-02T12:11:54.928Z,13.96
2023-05-02T12:14:29.557Z,14.13
2023-05-02T12:16:59.735Z,13.25
2023-05-02T12:19:28.139Z,13.79
2023-05-02T12:21:55.701Z,14.16
2023-05-02T12:24:23.450Z,14.22
2023-05-02T12:26:53.045Z,13.92
2023-05-02T12:29:20.517Z,13.75
2023-05-02T12:31:54.131Z,13.61
2023-05-02T12:34:34.376Z,13.38
2023-05-02T12:37:02.400Z,12.65
2023-05-02T12:39:36.858Z,12.39
2023-05-02T12:42:11.875Z,12.44
2023-05-02T12:44:40.753Z,12.35
2023-05-02T12:47:09.142Z,12.26
2023-05-02T12:49:51.317Z,12.64
2023-05-02T12:52:19.452Z,12.69
2023-05-02T12:54:47.180Z,12.65
2023-05-02T12:57:24.943Z,12.39
2023-05-02T12:59:53.761Z,12.43
2023-05-02T13:02:22.644Z,12.32
2023-05-02T13:04:51.542Z,11.91
2023-05-02T13:07:18.977Z,12.14
2023-05-02T13:09:46.391Z,12.32
2023-05-02T13:12:13.992Z,12.65
2023-05-02T13:14:41.589Z,12.73
2023-05-02T13:17:09.544Z,12.79
2023-05-02T13:19:38.771Z,12.46
2023-05-02T13:22:09.505Z,12.28
2023-05-02T13:24:36.860Z,12.43
2023-05-02T13:27:04.947Z,12.84
2023-05-02T13:29:32.323Z,13.81
2023-05-02T13:31:59.811Z,15.86
2023-05-02T13:34:27.615Z,15.30
2023-05-02T13:36:55.012Z,15.32
2023-05-02T13:39:24.007Z,14.87
2023-05-02T13:41:51.436Z,14.16
2023-05-02T13:44:18.860Z,13.95
2023-05-02T13:46:46.315Z,13.56
2023-05-02T13:49:13.862Z,13.65
2023-05-02T13:51:41.593Z,13.76
2023-05-02T13:54:09.054Z,15.51
2023-05-02T13:56:41.467Z,14.57
2023-05-02T13:59:10.917Z,14.45
2023-05-02T14:01:40.430Z,13.99
2023-05-02T14:04:08.714Z,13.62
2023-05-02T14:06:36.983Z,13.24
2023-05-02T14:09:05.195Z,14.06
2023-05-02T14:11:32.699Z,14.73
2023-05-02T14:14:01.569Z,16.30
2023-05-02T14:16:30.029Z,16.97
2023-05-02T14:18:57.600Z,17.92
2023-05-02T14:21:25.140Z,18.11
2023-05-02T14:23:52.504Z,19.59
2023-05-02T14:26:20.370Z,20.58
2023-05-02T14:28:48.065Z,18.76
2023-05-02T14:31:16.812Z,14.80
2023-05-02T14:33:44.404Z,13.76
2023-05-02T14:36:12.506Z,12.80
2023-05-02T14:38:39.941Z,12.42
2023-05-02T14:41:07.649Z,12.83
2023-05-02T14:43:35.039Z,14.02
2023-05-02T14:46:02.690Z,13.35
2023-05-02T14:48:31.459Z,13.44
2023-05-02T14:51:01.129Z,13.83
2023-05-02T14:53:28.524Z,14.18
2023-05-02T14:55:55.913Z,13.95
2023-05-02T14:58:23.573Z,13.21
2023-05-02T15:00:51.489Z,13.16
2023-05-02T15:03:19.328Z,12.98
2023-05-02T15:05:48.192Z,13.17
2023-05-02T15:08:18.474Z,13.10
2023-05-02T15:10:45.910Z,13.97
2023-05-02T15:13:13.285Z,14.62
2023-05-02T15:15:40.697Z,15.74
2023-05-02T15:18:08.131Z,16.12
2023-05-02T15:20:35.539Z,14.38
2023-05-02T15:23:04.419Z,13.97
2023-05-02T15:25:32.300Z,13.30
2023-05-02T15:27:59.732Z,13.42
2023-05-02T15:30:27.212Z,12.68
2023-05-02T15:32:54.714Z,12.46
2023-05-02T15:35:22.435Z,12.65
2023-05-02T15:37:49.806Z,12.73
2023-05-02T15:40:19.249Z,12.74
2023-05-02T15:42:46.965Z,13.43
2023-05-02T15:45:14.433Z,14.37
2023-05-02T15:47:41.916Z,14.09
2023-05-02T15:50:11.122Z,16.73
2023-05-02T15:52:38.491Z,15.49
2023-05-02T15:55:06.585Z,15.98
2023-05-02T15:57:35.294Z,16.41
2023-05-02T16:00:03.515Z,15.52
2023-05-02T16:02:31.469Z,13.68
2023-05-02T16:04:58.845Z,13.40
2023-05-02T16:07:26.441Z,12.52
2023-05-02T16:09:53.897Z,12.07
2023-05-02T16:12:21.266Z,12.13
2023-05-02T16:14:50.925Z,12.49
2023-05-02T16:17:18.406Z,12.81
2023-05-02T16:19:45.767Z,12.87
2023-05-02T16:22:13.153Z,12.37
2023-05-02T16:24:41.258Z,12.45
2023-05-02T16:27:09.861Z,12.55
2023-05-02T16:29:37.269Z,12.12
2023-05-02T16:32:07.958Z,11.92
2023-05-02T16:34:35.391Z,11.74
2023-05-02T16:37:03.941Z,11.97
2023-05-02T16:39:31.660Z,12.13
2023-05-02T16:41:59.087Z,12.30
2023-05-02T16:44:26.541Z,12.01
2023-05-02T16:46:54.046Z,11.87
2023-05-02T16:49:22.976Z,11.73
2023-05-02T16:51:51.686Z,11.65
2023-05-02T16:54:19.064Z,11.69
2023-05-02T16:56:46.577Z,11.96
2023-05-02T16:59:14.001Z,11.96
2023-05-02T17:01:41.447Z,12.15
2023-05-02T17:04:09.661Z,12.03
2023-05-02T17:06:38.490Z,12.00
2023-05-02T17:09:06.203Z,11.68
2023-05-02T17:11:33.608Z,11.61
2023-05-02T17:14:02.013Z,11.56
2023-05-02T17:16:29.491Z,11.65
2023-05-02T17:18:56.908Z,11.83
2023-05-02T17:21:24.438Z,11.67
2023-05-02T17:23:53.219Z,11.37
2023-05-02T17:26:22.808Z,11.27
2023-05-02T17:28:53.396Z,11.08
2023-05-02T17:31:20.939Z,11.14
2023-05-02T17:33:48.429Z,11.07
2023-05-02T17:36:15.925Z,10.89
2023-05-02T17:38:43.772Z,10.98
2023-05-02T17:41:12.911Z,11.00
2023-05-02T17:43:42.230Z,11.00
2023-05-02T17:46:10.093Z,10.93
2023-05-02T17:48:37.761Z,10.91
2023-05-02T17:51:06.883Z,10.89
2023-05-02T17:53:35.319Z,10.84
2023-05-02T17:56:03.151Z,10.72
2023-05-02T17:58:32.564Z,10.68
2023-05-02T18:01:07.785Z,10.60
2023-05-02T18:03:36.387Z,10.57
2023-05-02T18:06:04.042Z,10.60
2023-05-02T18:08:31.652Z,10.51
2023-05-02T18:11:00.009Z,10.47
2023-05-02T18:13:27.934Z,10.38
2023-05-02T18:16:01.397Z,10.31
2023-05-02T18:18:29.424Z,10.27
2023-05-02T18:20:57.609Z,10.27
2023-05-02T18:23:25.021Z,10.29
2023-05-02T18:25:52.439Z,10.19
2023-05-02T18:28:19.882Z,10.17
2023-05-02T18:30:47.294Z,10.10
2023-05-02T18:33:16.113Z,10.06
2023-05-02T18:35:46.436Z,10.09
2023-05-02T18:38:14.392Z,10.06
2023-05-02T18:40:41.963Z,10.05
2023-05-02T18:43:10.874Z,10.10
2023-05-02T18:45:38.375Z,10.06
2023-05-02T18:48:05.970Z,10.02
2023-05-02T18:50:34.780Z,9.99
2023-05-02T18:53:02.207Z,9.95
2023-05-02T18:55:29.588Z,9.94
2023-05-02T18:57:56.958Z,9.87
2023-05-02T19:00:25.783Z,9.86
2023-05-02T19:02:53.953Z,9.79
2023-05-02T19:05:21.515Z,9.72
2023-05-02T19:07:50.253Z,9.72
2023-05-02T19:10:17.926Z,9.67
2023-05-02T19:12:47.019Z,9.60
2023-05-02T19:15:14.443Z,9.60
2023-05-02T19:17:43.291Z,9.48
2023-05-02T19:20:11.646Z,9.43
2023-05-02T19:22:39.163Z,9.40
2023-05-02T19:25:09.512Z,9.43
2023-05-02T19:27:37.083Z,9.41
2023-05-02T19:30:05.344Z,9.41
2023-05-02T19:32:32.959Z,9.39
2023-05-02T19:35:01.966Z,9.40
2023-05-02T19:37:29.569Z,9.28
2023-05-02T19:39:57.060Z,9.22
2023-05-02T19:42:25.975Z,9.14
2023-05-02T19:44:54.150Z,9.10
2023-05-02T19:47:22.345Z,9.01
2023-05-02T19:49:51.730Z,8.91
2023-05-02T19:52:19.090Z,8.84
2023-05-02T19:54:47.418Z,8.76
2023-05-02T19:57:14.793Z,8.76
2023-05-02T19:59:43.519Z,8.84
2023-05-02T20:02:11.690Z,8.83
2023-05-02T20:04:39.157Z,8.79
2023-05-02T20:07:06.526Z,8.78
2023-05-02T20:09:33.930Z,8.74
2023-05-02T20:12:01.883Z,8.79
2023-05-02T20:14:29.324Z,8.79
2023-05-02T20:17:01.757Z,8.81
2023-05-02T20:19:32.053Z,8.83
2023-05-02T20:21:59.442Z,8.79
2023-05-02T20:24:26.878Z,8.79
2023-05-02T20:26:54.287Z,8.71
2023-05-02T20:29:21.726Z,8.64
2023-05-02T20:31:49.164Z,8.56
2023-05-02T20:34:17.966Z,8.43
2023-05-02T20:36:45.372Z,8.15
2023-05-02T20:39:13.468Z,7.90
2023-05-02T20:41:41.535Z,7.66
2023-05-02T20:44:08.894Z,7.47
2023-05-02T20:46:36.991Z,7.31
2023-05-02T20:49:05.662Z,7.27
2023-05-02T20:51:34.422Z,7.30
2023-05-02T20:54:02.188Z,7.39
2023-05-02T20:56:29.577Z,7.44
2023-05-02T20:58:57.287Z,7.36
2023-05-02T21:01:26.101Z,7.27
2023-05-02T21:03:53.565Z,7.21
2023-05-02T21:06:23.314Z,7.06
2023-05-02T21:08:55.057Z,6.93
2023-05-02T21:11:22.608Z,6.78
2023-05-02T21:13:50.066Z,6.62
2023-05-02T21:16:18.441Z,6.49
2023-05-02T21:18:46.431Z,6.30
2023-05-02T21:21:14.503Z,6.11
2023-05-02T21:23:42.119Z,5.96
2023-05-02T21:26:10.824Z,5.68
2023-05-02T21:28:38.518Z,5.35
2023-05-02T21:31:07.967Z,5.28
2023-05-02T21:33:35.633Z,5.23
2023-05-02T21:36:03.071Z,5.26
2023-05-02T21:38:30.524Z,5.37
2023-05-02T21:41:02.609Z,5.40
2023-05-02T21:43:32.125Z,5.38
2023-05-02T21:45:59.511Z,5.34
2023-05-02T21:48:26.909Z,5.28
2023-05-02T21:50:54.523Z,5.14
2023-05-02T21:53:21.961Z,4.84
2023-05-02T21:55:49.368Z,4.53
2023-05-02T21:58:16.856Z,4.38
2023-05-02T22:00:45.723Z,4.17
2023-05-02T22:03:13.120Z,4.25
2023-05-02T22:05:41.549Z,4.35
2023-05-02T22:08:10.874Z,4.45
2023-05-02T22:10:39.481Z,4.40
2023-05-02T22:13:09.334Z,4.32
2023-05-02T22:15:37.631Z,4.20
2023-05-02T22:18:07.058Z,4.01
2023-05-02T22:20:36.083Z,3.92
2023-05-02T22:23:03.569Z,4.08
2023-05-02T22:25:31.015Z,4.09
2023-05-02T22:28:00.955Z,4.04
2023-05-02T22:30:28.335Z,3.90
2023-05-02T22:32:55.864Z,3.63
2023-05-02T22:35:24.628Z,3.54
2023-05-02T22:37:52.009Z,3.55
2023-05-02T22:40:19.593Z,3.59
2023-05-02T22:42:46.971Z,3.57
2023-05-02T22:45:14.435Z,3.53
2023-05-02T22:47:41.894Z,3.44
2023-05-02T22:50:11.149Z,3.32
2023-05-02T22:52:40.034Z,3.47
2023-05-02T22:55:09.042Z,3.73
2023-05-02T22:57:36.535Z,3.74
2023-05-02T23:00:05.280Z,3.68
2023-05-02T23:02:32.948Z,3.73
2023-05-02T23:05:00.396Z,3.79
2023-05-02T23:07:27.837Z,3.78
2023-05-02T23:09:56.664Z,3.74
2023-05-02T23:12:24.091Z,3.62
2023-05-02T23:14:51.471Z,3.36
2023-05-02T23:17:19.399Z,3.13
2023-05-02T23:19:46.807Z,3.13
2023-05-02T23:22:14.256Z,3.04
2023-05-02T23:24:42.007Z,3.04
2023-05-02T23:27:10.756Z,3.25
2023-05-02T23:29:38.200Z,3.28
2023-05-02T23:32:07.935Z,3.34
2023-05-02T23:34:36.929Z,3.29
2023-05-02T23:37:06.886Z,3.18
2023-05-02T23:39:34.618Z,3.10
2023-05-02T23:42:03.539Z,3.11
2023-05-02T23:44:32.358Z,3.11
2023-05-02T23:46:59.877Z,3.17
2023-05-02T23:49:27.396Z,3.19
2023-05-02T23:51:54.836Z,3.38
2023-05-02T23:54:22.327Z,3.33
2023-05-02T23:56:49.772Z,3.18
2023-05-02T23:59:17.628Z,2.98
